Time;durP1;ratioP1;P1;durP2;ratioP2;P2;SDS_P1;SDS_P2;PMS_P1;PMS_P2;Temp;Humidity;BMP_temperature;BMP_pressure;BME280_temperature;BME280_humidity;BME280_pressure;Samples;Min_cycle;Max_cycle;Signal;HPM_P1;HPM_P2
2021/07/16 00:02:23;;;;;;;0.60;0.50;;;13.60;99.90;;;;;;5059837;28;20176;-82
2021/07/16 00:04:48;;;;;;;2.60;0.70;;;13.50;99.90;;;;;;5057854;28;20173;-82
2021/07/16 00:07:14;;;;;;;0.70;0.67;;;13.50;99.90;;;;;;5058211;28;20181;-82
2021/07/16 00:09:39;;;;;;;0.73;0.60;;;13.60;99.90;;;;;;5057616;28;20657;-82
2021/07/16 00:12:05;;;;;;;1.40;0.60;;;13.60;99.90;;;;;;5058011;28;20211;-82
2021/07/16 00:14:32;;;;;;;0.80;0.57;;;13.60;99.90;;;;;;5058454;28;20180;-82
2021/07/16 00:17:01;;;;;;;0.97;0.80;;;13.60;99.90;;;;;;5059392;28;20204;-82
2021/07/16 00:19:27;;;;;;;0.80;0.70;;;13.60;99.90;;;;;;5061464;28;20177;-82
2021/07/16 00:21:53;;;;;;;2.20;0.60;;;13.60;99.90;;;;;;5061170;28;20263;-82
2021/07/16 00:24:19;;;;;;;1.17;0.60;;;13.50;99.90;;;;;;5061990;28;20191;-82
2021/07/16 00:26:46;;;;;;;1.70;0.60;;;13.40;99.90;;;;;;5061262;28;20186;-82
2021/07/16 00:29:12;;;;;;;1.83;0.60;;;13.40;99.90;;;;;;5059279;28;20224;-82
2021/07/16 00:31:38;;;;;;;0.50;0.50;;;13.40;99.90;;;;;;5057604;28;20205;-82
2021/07/16 00:34:04;;;;;;;4.23;0.80;;;13.40;99.90;;;;;;5071254;28;20186;-82
2021/07/16 00:36:30;;;;;;;0.70;0.60;;;13.40;99.90;;;;;;5062991;28;20221;-83
2021/07/16 00:38:56;;;;;;;0.40;0.40;;;13.40;99.90;;;;;;5063718;28;20173;-82
2021/07/16 00:41:21;;;;;;;2.17;0.60;;;13.40;99.90;;;;;;5062638;28;20227;-82
2021/07/16 00:43:47;;;;;;;1.03;0.73;;;13.40;99.90;;;;;;5063181;28;20290;-83
2021/07/16 00:46:13;;;;;;;1.90;0.57;;;13.30;99.90;;;;;;5064655;28;20189;-82
2021/07/16 00:48:38;;;;;;;0.77;0.50;;;13.30;99.90;;;;;;5065551;28;20181;-83
2021/07/16 00:51:04;;;;;;;0.60;0.60;;;13.30;99.90;;;;;;5067861;28;20286;-82
2021/07/16 00:53:30;;;;;;;0.90;0.70;;;13.30;99.90;;;;;;5072500;28;20177;-82
2021/07/16 00:55:56;;;;;;;0.60;0.50;;;13.30;99.90;;;;;;5070540;28;20201;-82
2021/07/16 00:58:21;;;;;;;3.40;0.80;;;13.30;99.90;;;;;;5061237;28;20220;-82
2021/07/16 01:00:47;;;;;;;1.63;0.70;;;13.30;99.90;;;;;;5061654;28;20209;-82
2021/07/16 01:03:13;;;;;;;1.63;0.90;;;13.30;99.90;;;;;;5061039;28;20180;-82
2021/07/16 01:05:39;;;;;;;2.37;0.70;;;13.30;99.90;;;;;;5062999;28;20226;-82
2021/07/16 01:08:05;;;;;;;1.53;0.60;;;13.30;99.90;;;;;;5061467;28;20257;-82
2021/07/16 01:10:31;;;;;;;0.50;0.50;;;13.30;99.90;;;;;;5061773;28;20204;-82
2021/07/16 01:12:57;;;;;;;1.53;0.83;;;13.20;99.90;;;;;;5061103;28;20268;-82
2021/07/16 01:15:25;;;;;;;1.77;0.63;;;13.20;99.90;;;;;;5061096;28;20185;-82
2021/07/16 01:17:53;;;;;;;3.97;0.60;;;13.20;99.90;;;;;;5061512;28;20188;-82
2021/07/16 01:20:22;;;;;;;3.07;0.73;;;13.20;99.90;;;;;;5060485;28;20291;-82
2021/07/16 01:22:50;;;;;;;6.43;1.63;;;13.20;99.90;;;;;;5061339;28;20190;-82
2021/07/16 01:25:18;;;;;;;0.87;0.67;;;13.20;99.90;;;;;;5060998;28;20201;-82
2021/07/16 01:27:46;;;;;;;0.70;0.70;;;13.20;99.90;;;;;;5060677;28;20252;-82
2021/07/16 01:30:13;;;;;;;2.10;0.70;;;13.20;99.90;;;;;;5060825;28;20185;-82
2021/07/16 01:32:40;;;;;;;0.83;0.70;;;13.20;99.90;;;;;;5065424;28;20211;-82
2021/07/16 01:35:07;;;;;;;1.30;0.87;;;13.20;99.90;;;;;;5072946;28;20260;-82
2021/07/16 01:37:35;;;;;;;0.87;0.70;;;13.20;99.90;;;;;;5077355;28;20212;-82
2021/07/16 01:40:08;;;;;;;1.17;0.80;;;13.20;99.90;;;;;;5070541;28;20230;-83
2021/07/16 01:42:46;;;;;;;1.70;0.67;;;13.20;99.90;;;;;;5060713;28;20162;-82
2021/07/16 01:45:25;;;;;;;0.90;0.90;;;13.20;99.90;;;;;;5060719;28;20196;-82
2021/07/16 01:47:54;;;;;;;0.80;0.80;;;13.20;99.90;;;;;;5060574;28;20172;-82
2021/07/16 01:50:20;;;;;;;0.73;0.60;;;13.20;99.90;;;;;;5060283;28;20593;-82
2021/07/16 01:52:47;;;;;;;1.77;0.93;;;13.20;99.90;;;;;;5060246;28;20189;-82
2021/07/16 01:55:15;;;;;;;0.60;0.57;;;13.20;99.90;;;;;;5060168;28;20235;-82
2021/07/16 01:57:44;;;;;;;4.03;0.90;;;13.20;99.90;;;;;;5060604;28;20181;-82
2021/07/16 02:00:11;;;;;;;2.03;0.70;;;13.10;99.90;;;;;;5059979;28;20204;-82
2021/07/16 02:02:50;;;;;;;1.00;0.87;;;13.10;99.90;;;;;;5061072;28;20256;-82
2021/07/16 02:05:17;;;;;;;0.80;0.60;;;13.10;99.90;;;;;;5060010;28;20173;-82
2021/07/16 02:07:49;;;;;;;2.20;0.70;;;13.10;99.90;;;;;;5059640;28;20259;-82
2021/07/16 02:10:16;;;;;;;0.67;0.53;;;13.10;99.90;;;;;;5061223;28;20290;-82
2021/07/16 02:12:42;;;;;;;1.27;0.80;;;13.10;99.90;;;;;;5061757;28;20620;-81
2021/07/16 02:15:20;;;;;;;1.67;0.90;;;13.10;99.90;;;;;;5061431;28;20181;-82
2021/07/16 02:17:47;;;;;;;1.10;0.80;;;13.00;99.90;;;;;;5060344;28;20240;-83
2021/07/16 02:20:22;;;;;;;3.20;0.80;;;13.00;99.90;;;;;;5059702;28;20213;-82
2021/07/16 02:22:48;;;;;;;1.17;0.90;;;13.00;99.90;;;;;;5060108;28;20611;-82
2021/07/16 02:25:15;;;;;;;1.20;0.70;;;13.00;99.90;;;;;;5060414;28;20192;-82
2021/07/16 02:27:43;;;;;;;1.07;0.70;;;13.00;99.90;;;;;;5060499;28;20223;-82
2021/07/16 02:30:09;;;;;;;1.17;0.77;;;12.90;99.90;;;;;;5060039;28;20224;-82
2021/07/16 02:32:35;;;;;;;1.10;0.87;;;13.00;99.90;;;;;;5060538;28;20186;-82
2021/07/16 02:35:00;;;;;;;0.70;0.70;;;12.90;99.90;;;;;;5061734;28;20188;-82
2021/07/16 02:37:26;;;;;;;1.83;1.00;;;13.00;99.90;;;;;;5060953;28;20218;-82
2021/07/16 02:39:52;;;;;;;1.37;0.80;;;13.00;99.90;;;;;;5059813;28;20207;-83
2021/07/16 02:42:17;;;;;;;0.50;0.50;;;13.00;99.90;;;;;;5060472;28;20205;-82
2021/07/16 02:44:43;;;;;;;3.40;0.87;;;13.10;99.90;;;;;;5060705;28;20177;-82
2021/07/16 02:47:09;;;;;;;0.80;0.70;;;13.10;99.90;;;;;;5062057;28;20188;-82
2021/07/16 02:49:34;;;;;;;1.07;0.87;;;13.10;99.90;;;;;;5059079;28;20177;-82
2021/07/16 02:52:00;;;;;;;1.87;0.70;;;13.10;99.90;;;;;;5061157;28;20185;-82
2021/07/16 02:54:25;;;;;;;1.07;0.70;;;13.20;99.90;;;;;;5060743;28;20176;-82
2021/07/16 02:56:51;;;;;;;0.70;0.70;;;13.10;99.90;;;;;;5061998;28;20170;-81
2021/07/16 02:59:17;;;;;;;0.90;0.70;;;13.10;99.90;;;;;;5064942;28;20184;-82
2021/07/16 03:01:56;;;;;;;0.87;0.70;;;13.10;99.90;;;;;;5058416;28;20244;-82
2021/07/16 03:04:22;;;;;;;1.23;0.80;;;13.00;99.90;;;;;;5058668;28;20176;-81
2021/07/16 03:06:48;;;;;;;0.73;0.73;;;12.90;99.90;;;;;;5058733;28;20697;-82
2021/07/16 03:09:14;;;;;;;2.30;0.80;;;12.90;99.90;;;;;;5057753;28;20263;-81
2021/07/16 03:11:40;;;;;;;1.57;1.00;;;12.80;99.90;;;;;;5058458;28;20200;-81
2021/07/16 03:14:05;;;;;;;1.00;0.80;;;12.70;99.90;;;;;;5072264;28;20189;-82
2021/07/16 03:16:31;;;;;;;1.00;0.90;;;12.70;99.90;;;;;;5064491;28;20238;-82
2021/07/16 03:18:58;;;;;;;0.80;0.80;;;12.60;99.90;;;;;;5059880;28;20272;-82
2021/07/16 03:21:24;;;;;;;1.20;1.10;;;12.60;99.90;;;;;;5058923;28;20241;-82
2021/07/16 03:23:50;;;;;;;2.60;0.97;;;12.60;99.90;;;;;;5060753;28;20200;-82
2021/07/16 03:26:15;;;;;;;2.87;0.93;;;12.50;99.90;;;;;;5059017;28;20181;-82
2021/07/16 03:28:41;;;;;;;1.03;0.80;;;12.50;99.90;;;;;;5059337;28;20189;-82
2021/07/16 03:31:07;;;;;;;1.20;1.10;;;12.40;99.90;;;;;;5058690;28;20236;-82
2021/07/16 03:33:33;;;;;;;1.70;0.80;;;12.40;99.90;;;;;;5060452;28;20180;-82
2021/07/16 03:35:59;;;;;;;2.17;0.90;;;12.40;99.90;;;;;;5058961;28;20185;-82
2021/07/16 03:38:25;;;;;;;1.20;1.00;;;12.40;99.90;;;;;;5060151;28;20192;-82
2021/07/16 03:40:55;;;;;;;2.20;1.20;;;12.40;99.90;;;;;;5060572;28;20677;-82
2021/07/16 03:43:21;;;;;;;2.20;1.07;;;12.40;99.90;;;;;;5058684;28;20187;-82
2021/07/16 03:45:46;;;;;;;1.87;1.30;;;12.40;99.90;;;;;;5059065;28;20281;-82
2021/07/16 03:48:12;;;;;;;1.67;1.10;;;12.30;99.90;;;;;;5058345;28;20655;-82
2021/07/16 03:50:37;;;;;;;1.67;1.13;;;12.40;99.90;;;;;;5059214;28;20197;-82
2021/07/16 03:53:04;;;;;;;1.20;1.10;;;12.30;99.90;;;;;;5058308;28;20586;-82
2021/07/16 03:55:29;;;;;;;1.30;1.20;;;12.30;99.90;;;;;;5058422;28;20188;-82
2021/07/16 03:57:55;;;;;;;1.83;1.10;;;12.30;99.90;;;;;;5059479;28;20175;-82
2021/07/16 04:00:28;;;;;;;2.27;1.30;;;12.30;99.90;;;;;;5057934;28;20579;-82
2021/07/16 04:02:57;;;;;;;2.40;1.20;;;12.40;99.90;;;;;;5058480;28;20169;-82
2021/07/16 04:05:24;;;;;;;2.53;1.20;;;12.40;99.90;;;;;;5057631;28;20191;-82
2021/07/16 04:07:51;;;;;;;1.20;1.10;;;12.50;99.90;;;;;;5059027;28;20177;-82
2021/07/16 04:10:20;;;;;;;2.33;1.20;;;12.50;99.90;;;;;;5057602;28;20205;-82
2021/07/16 04:12:57;;;;;;;1.70;1.07;;;12.60;99.90;;;;;;5058170;28;20524;-82
2021/07/16 04:15:25;;;;;;;0.90;0.90;;;12.60;99.90;;;;;;5059586;28;20584;-82
2021/07/16 04:17:57;;;;;;;2.83;0.77;;;12.60;99.90;;;;;;5059223;28;20185;-82
2021/07/16 04:20:23;;;;;;;1.73;1.00;;;12.60;99.90;;;;;;5058987;28;20213;-82
2021/07/16 04:22:49;;;;;;;1.13;0.90;;;12.60;99.90;;;;;;5059220;28;20217;-82
2021/07/16 04:25:19;;;;;;;1.40;1.10;;;12.60;99.90;;;;;;5057976;28;20184;-82
2021/07/16 04:27:46;;;;;;;1.37;1.00;;;12.60;99.90;;;;;;5059190;28;20685;-83
2021/07/16 04:30:13;;;;;;;3.63;1.30;;;12.70;99.90;;;;;;5057508;28;20177;-82
2021/07/16 04:32:40;;;;;;;2.37;0.80;;;12.70;99.90;;;;;;5057703;28;20550;-82
2021/07/16 04:35:07;;;;;;;0.80;0.77;;;12.60;99.90;;;;;;5058586;28;20180;-82
2021/07/16 04:37:35;;;;;;;1.13;0.90;;;12.60;99.90;;;;;;5056842;28;20199;-84
2021/07/16 04:40:03;;;;;;;1.20;0.90;;;12.60;99.90;;;;;;5055917;28;20212;-82
2021/07/16 04:42:28;;;;;;;4.33;1.10;;;12.70;99.90;;;;;;5055577;28;20186;-82
2021/07/16 04:44:54;;;;;;;1.93;1.00;;;12.70;99.90;;;;;;5055384;28;20298;-82
2021/07/16 04:47:20;;;;;;;2.33;1.00;;;12.80;99.90;;;;;;5059054;28;20179;-82
2021/07/16 04:49:45;;;;;;;1.60;1.17;;;12.80;99.90;;;;;;5068792;28;20172;-83
2021/07/16 04:52:11;;;;;;;1.33;0.90;;;12.90;99.90;;;;;;5075526;28;20188;-81
2021/07/16 04:54:37;;;;;;;2.10;0.90;;;12.90;99.90;;;;;;5073909;28;20175;-82
2021/07/16 04:57:03;;;;;;;1.10;1.00;;;13.00;99.90;;;;;;5058133;28;20228;-82
2021/07/16 04:59:28;;;;;;;0.73;0.70;;;13.00;99.90;;;;;;5059509;28;20546;-82
2021/07/16 05:01:54;;;;;;;0.80;0.80;;;13.00;99.90;;;;;;5059602;28;20220;-81
2021/07/16 05:04:20;;;;;;;0.90;0.80;;;13.00;99.90;;;;;;5067729;28;20190;-82
2021/07/16 05:06:45;;;;;;;1.30;0.97;;;13.10;99.90;;;;;;5086644;28;20172;-82
2021/07/16 05:09:11;;;;;;;2.10;0.90;;;13.20;99.90;;;;;;5085518;28;20228;-82
2021/07/16 05:11:37;;;;;;;1.23;0.87;;;13.30;99.90;;;;;;5080985;28;20219;-81
2021/07/16 05:14:03;;;;;;;1.20;0.93;;;13.40;99.90;;;;;;5080230;28;20645;-82
2021/07/16 05:16:29;;;;;;;2.23;0.90;;;13.50;99.90;;;;;;5083162;28;20172;-82
2021/07/16 05:18:55;;;;;;;1.00;0.90;;;13.60;99.90;;;;;;5082589;28;20181;-82
2021/07/16 05:21:21;;;;;;;1.40;1.00;;;13.70;99.90;;;;;;5084292;28;20296;-82
2021/07/16 05:23:46;;;;;;;1.77;1.10;;;13.70;99.90;;;;;;5082206;28;20187;-82
2021/07/16 05:26:13;;;;;;;3.10;0.90;;;13.80;99.90;;;;;;5083921;28;20177;-82
2021/07/16 05:28:39;;;;;;;1.73;1.00;;;13.80;99.90;;;;;;5084513;28;20231;-83
2021/07/16 05:31:05;;;;;;;2.30;1.10;;;13.90;99.90;;;;;;5085779;28;20209;-83
2021/07/16 05:33:31;;;;;;;3.93;1.20;;;13.90;99.90;;;;;;5087232;28;20195;-82
2021/07/16 05:35:56;;;;;;;1.40;0.90;;;13.90;99.90;;;;;;5087522;28;20169;-82
2021/07/16 05:38:22;;;;;;;2.70;0.83;;;14.00;99.90;;;;;;5080490;28;20548;-82
2021/07/16 05:40:49;;;;;;;0.90;0.83;;;14.00;99.90;;;;;;5081023;28;20212;-82
2021/07/16 05:43:15;;;;;;;1.13;0.77;;;14.00;99.90;;;;;;5080451;28;20288;-82
2021/07/16 05:45:42;;;;;;;1.33;1.00;;;13.90;99.90;;;;;;5079860;28;20173;-82
2021/07/16 05:48:11;;;;;;;1.87;1.00;;;14.00;99.90;;;;;;5078963;28;20173;-83
2021/07/16 05:50:39;;;;;;;1.33;1.17;;;14.00;99.90;;;;;;5078361;28;20258;-83
2021/07/16 05:53:06;;;;;;;1.70;1.00;;;14.10;99.90;;;;;;5078422;28;20189;-83
2021/07/16 05:55:33;;;;;;;2.37;1.30;;;14.20;99.90;;;;;;5077834;28;20188;-83
2021/07/16 05:57:59;;;;;;;1.17;1.00;;;14.30;99.90;;;;;;5080579;28;20184;-83
2021/07/16 06:00:25;;;;;;;1.80;0.83;;;14.40;99.90;;;;;;5087987;28;20208;-83
2021/07/16 06:02:51;;;;;;;1.23;0.87;;;14.40;99.90;;;;;;5083071;28;20177;-83
2021/07/16 06:05:17;;;;;;;1.60;1.20;;;14.50;99.90;;;;;;5081780;28;20184;-85
2021/07/16 06:07:44;;;;;;;1.30;1.20;;;14.50;99.90;;;;;;5085086;28;20181;-83
2021/07/16 06:10:10;;;;;;;3.83;1.90;;;14.60;99.90;;;;;;5082942;28;20173;-83
2021/07/16 06:12:36;;;;;;;1.60;1.50;;;14.70;99.90;;;;;;5080452;28;20253;-83
2021/07/16 06:15:03;;;;;;;3.50;1.70;;;14.70;99.90;;;;;;5081719;28;20181;-83
2021/07/16 06:17:30;;;;;;;2.07;1.50;;;14.80;99.90;;;;;;5081024;28;20623;-83
2021/07/16 06:19:55;;;;;;;3.80;2.10;;;14.90;99.90;;;;;;5080035;28;20239;-83
2021/07/16 06:22:21;;;;;;;2.40;1.80;;;14.90;99.90;;;;;;5079027;28;20172;-83
2021/07/16 06:24:47;;;;;;;7.53;2.00;;;15.00;99.90;;;;;;5080536;28;20200;-83
2021/07/16 06:27:12;;;;;;;2.17;1.97;;;15.10;99.90;;;;;;5081181;28;20705;-83
2021/07/16 06:29:38;;;;;;;3.27;2.10;;;15.20;99.90;;;;;;5080198;28;20188;-83
2021/07/16 06:32:04;;;;;;;4.50;2.23;;;15.20;99.90;;;;;;5080152;28;20605;-83
2021/07/16 06:34:30;;;;;;;2.33;2.13;;;15.30;99.90;;;;;;5080838;28;20172;-83
2021/07/16 06:36:56;;;;;;;4.97;2.40;;;15.50;99.90;;;;;;5080980;28;20177;-83
2021/07/16 06:39:22;;;;;;;2.97;1.87;;;15.60;99.90;;;;;;5082165;28;20184;-83
2021/07/16 06:41:47;;;;;;;5.53;2.53;;;15.70;99.90;;;;;;5080600;28;20212;-83
2021/07/16 06:44:14;;;;;;;3.27;2.23;;;15.70;99.90;;;;;;5080623;28;20184;-83
2021/07/16 06:46:41;;;;;;;2.50;1.87;;;15.80;99.90;;;;;;5080265;28;20173;-83
2021/07/16 06:49:07;;;;;;;3.80;1.50;;;15.90;99.90;;;;;;5079941;28;20206;-83
2021/07/16 06:51:33;;;;;;;2.17;1.70;;;15.90;99.90;;;;;;5080582;28;20201;-83
2021/07/16 06:53:59;;;;;;;1.73;1.40;;;15.90;99.90;;;;;;5080812;28;20192;-82
2021/07/16 06:56:25;;;;;;;1.70;1.60;;;15.90;99.90;;;;;;5082040;28;20208;-83
2021/07/16 06:58:52;;;;;;;2.73;2.23;;;15.90;99.90;;;;;;5081933;28;20635;-82
2021/07/16 07:01:19;;;;;;;2.20;2.00;;;15.90;99.90;;;;;;5080123;28;20224;-83
2021/07/16 07:03:46;;;;;;;2.83;2.30;;;15.90;99.90;;;;;;5081301;28;20187;-82
2021/07/16 07:06:12;;;;;;;2.13;1.90;;;15.90;99.90;;;;;;5080009;28;20720;-83
2021/07/16 07:08:37;;;;;;;2.00;1.80;;;16.00;99.90;;;;;;5080734;28;20216;-83
2021/07/16 07:11:05;;;;;;;1.87;1.47;;;15.90;99.90;;;;;;5080905;28;20288;-83
2021/07/16 07:13:30;;;;;;;2.20;2.00;;;16.00;99.90;;;;;;5080704;28;20182;-83
2021/07/16 07:15:56;;;;;;;10.17;9.27;;;16.00;99.90;;;;;;5081655;28;20177;-83
2021/07/16 07:18:22;;;;;;;12.03;8.73;;;16.10;99.90;;;;;;5080870;28;20192;-83
2021/07/16 07:20:48;;;;;;;5.60;5.00;;;16.20;99.90;;;;;;5080005;28;20729;-83
2021/07/16 07:23:13;;;;;;;3.07;2.77;;;16.20;99.90;;;;;;5080501;28;20204;-82
2021/07/16 07:25:39;;;;;;;3.33;2.13;;;16.20;99.90;;;;;;5080890;28;20182;-83
2021/07/16 07:28:05;;;;;;;2.50;2.30;;;16.20;99.90;;;;;;5080719;28;20250;-83
2021/07/16 07:30:31;;;;;;;2.30;2.10;;;16.20;99.90;;;;;;5081543;28;20207;-83
2021/07/16 07:32:56;;;;;;;4.83;4.13;;;16.20;99.90;;;;;;5080153;28;20270;-82
2021/07/16 07:35:22;;;;;;;2.87;2.67;;;16.20;99.90;;;;;;5081474;28;20195;-83
2021/07/16 07:37:48;;;;;;;2.67;2.47;;;16.30;99.90;;;;;;5081747;28;20178;-83
2021/07/16 07:40:17;;;;;;;4.20;2.50;;;16.40;99.90;;;;;;5081647;28;20197;-83
2021/07/16 07:42:44;;;;;;;3.57;3.07;;;16.40;99.90;;;;;;5081813;28;20180;-83
2021/07/16 07:45:11;;;;;;;3.47;2.50;;;16.40;99.90;;;;;;5080128;28;20177;-83
2021/07/16 07:47:37;;;;;;;4.97;2.30;;;16.50;99.90;;;;;;5081225;28;20261;-83
2021/07/16 07:50:09;;;;;;;2.33;2.13;;;16.50;99.90;;;;;;5081667;28;20205;-83
2021/07/16 07:52:35;;;;;;;3.70;3.40;;;16.60;99.90;;;;;;5084278;28;20186;-82
2021/07/16 07:55:01;;;;;;;13.60;12.30;;;16.70;99.90;;;;;;5085304;28;20182;-82
2021/07/16 07:57:27;;;;;;;6.67;5.97;;;16.70;99.90;;;;;;5082911;28;20188;-82
2021/07/16 07:59:53;;;;;;;10.87;9.40;;;16.70;99.90;;;;;;5087751;28;20186;-82
2021/07/16 08:02:19;;;;;;;4.80;4.07;;;16.80;99.90;;;;;;5092215;28;20576;-82
2021/07/16 08:04:44;;;;;;;8.90;7.20;;;17.00;99.90;;;;;;5092351;28;20179;-83
2021/07/16 08:07:10;;;;;;;6.03;5.13;;;17.00;99.90;;;;;;5082705;28;20637;-82
2021/07/16 08:09:36;;;;;;;4.50;4.10;;;17.00;99.90;;;;;;5080878;28;20176;-82
2021/07/16 08:12:03;;;;;;;7.73;7.03;;;17.10;99.90;;;;;;5081113;28;20538;-83
2021/07/16 08:14:29;;;;;;;4.10;3.70;;;17.10;99.90;;;;;;5080597;28;20183;-83
2021/07/16 08:16:54;;;;;;;2.50;2.30;;;17.20;99.90;;;;;;5082703;28;20185;-83
2021/07/16 08:19:20;;;;;;;5.13;4.63;;;17.30;99.90;;;;;;5082087;28;20545;-83
2021/07/16 08:21:54;;;;;;;14.77;13.47;;;17.30;99.90;;;;;;5080705;28;20236;-83
2021/07/16 08:24:21;;;;;;;3.20;2.70;;;17.60;99.90;;;;;;5082912;28;20183;-83
2021/07/16 08:26:47;;;;;;;2.97;2.23;;;17.70;99.90;;;;;;5081435;28;20263;-84
2021/07/16 08:29:13;;;;;;;4.27;2.60;;;17.90;99.90;;;;;;5082768;28;20183;-83
2021/07/16 08:31:39;;;;;;;3.40;2.70;;;18.10;99.90;;;;;;5082423;28;20222;-83
2021/07/16 08:34:06;;;;;;;2.57;2.37;;;18.30;99.90;;;;;;5083073;28;20197;-83
2021/07/16 08:36:33;;;;;;;2.87;2.00;;;18.40;99.90;;;;;;5081826;28;20184;-83
2021/07/16 08:38:59;;;;;;;2.17;1.97;;;18.50;99.90;;;;;;5084535;28;20180;-82
2021/07/16 08:41:25;;;;;;;2.57;2.10;;;18.50;99.90;;;;;;5097601;28;20226;-82
2021/07/16 08:43:51;;;;;;;2.30;2.10;;;18.50;99.90;;;;;;5085137;28;20637;-82
2021/07/16 08:46:17;;;;;;;1.87;1.60;;;18.60;99.90;;;;;;5084283;28;20585;-83
2021/07/16 08:48:47;;;;;;;1.87;1.77;;;18.80;99.90;;;;;;5083832;28;20646;-83
2021/07/16 08:51:16;;;;;;;2.00;1.83;;;18.90;99.90;;;;;;5084674;28;20196;-82
2021/07/16 08:53:41;;;;;;;2.80;2.60;;;18.80;99.90;;;;;;5083165;28;20177;-83
2021/07/16 08:56:08;;;;;;;3.23;2.60;;;18.70;99.90;;;;;;5082916;28;20184;-82
2021/07/16 08:58:34;;;;;;;4.33;2.70;;;18.70;99.90;;;;;;5084770;28;20169;-82
2021/07/16 09:00:59;;;;;;;3.97;2.17;;;18.70;99.90;;;;;;5082990;28;20653;-83
2021/07/16 09:03:25;;;;;;;2.73;2.10;;;18.70;99.90;;;;;;5085127;28;20606;-83
2021/07/16 09:05:51;;;;;;;2.37;1.77;;;18.80;99.90;;;;;;5083679;28;20241;-83
2021/07/16 09:08:19;;;;;;;2.20;2.00;;;18.90;99.90;;;;;;5084239;28;20176;-83
2021/07/16 09:10:47;;;;;;;3.80;1.77;;;18.90;99.90;;;;;;5083899;28;20214;-83
2021/07/16 09:13:13;;;;;;;3.80;2.00;;;19.00;99.90;;;;;;5085433;28;20222;-83
2021/07/16 09:15:39;;;;;;;2.23;2.00;;;19.30;99.90;;;;;;5086303;28;20234;-83
2021/07/16 09:18:18;;;;;;;2.40;1.77;;;19.60;99.90;;;;;;5084070;28;20185;-82
2021/07/16 09:20:45;;;;;;;2.20;2.00;;;19.80;99.90;;;;;;5085401;28;20200;-83
2021/07/16 09:23:16;;;;;;;2.17;1.97;;;19.90;99.90;;;;;;5083909;28;20180;-82
2021/07/16 09:25:43;;;;;;;2.30;2.10;;;19.90;99.90;;;;;;5083389;28;20241;-82
2021/07/16 09:28:29;;;;;;;3.03;2.73;;;19.80;99.90;;;;;;5082591;28;20222;-82
2021/07/16 09:31:18;;;;;;;2.00;1.80;;;19.60;99.90;;;;;;5083391;28;20339;-82
2021/07/16 09:34:03;;;;;;;2.70;2.00;;;19.40;99.90;;;;;;5083540;28;20188;-82
2021/07/16 09:36:46;;;;;;;2.27;2.10;;;19.60;99.90;;;;;;5083720;28;20179;-83
2021/07/16 09:39:16;;;;;;;2.73;1.90;;;20.30;99.90;;;;;;5084878;28;20268;-82
2021/07/16 09:41:55;;;;;;;2.00;1.40;;;20.70;99.90;;;;;;5083525;28;20208;-82
2021/07/16 09:44:45;;;;;;;1.47;1.37;;;21.30;99.90;;;;;;5083011;28;20511;-83
2021/07/16 09:47:16;;;;;;;2.00;1.70;;;21.30;99.90;;;;;;5083793;28;20630;-82
2021/07/16 09:49:45;;;;;;;2.53;1.87;;;21.00;99.90;;;;;;5085181;28;20153;-82
2021/07/16 09:52:16;;;;;;;2.10;1.90;;;20.50;99.90;;;;;;5084264;28;20205;-83
2021/07/16 09:55:18;;;;;;;1.57;1.47;;;20.00;99.90;;;;;;5085016;28;20260;-83
2021/07/16 09:57:44;;;;;;;1.93;1.40;;;19.60;99.90;;;;;;5085299;28;20204;-82
2021/07/16 10:00:13;;;;;;;1.43;1.20;;;19.30;99.90;;;;;;5084199;28;20208;-82
2021/07/16 10:02:39;;;;;;;1.70;1.60;;;19.20;99.90;;;;;;5084549;28;20184;-83
2021/07/16 10:05:06;;;;;;;3.27;2.03;;;19.00;99.90;;;;;;5086820;28;20196;-84
2021/07/16 10:07:33;;;;;;;3.63;1.73;;;18.80;99.90;;;;;;5085620;28;20173;-84
2021/07/16 10:10:00;;;;;;;2.97;2.30;;;18.60;99.90;;;;;;5085627;28;20189;-83
2021/07/16 10:12:26;;;;;;;2.20;1.93;;;18.50;99.90;;;;;;5086877;28;20184;-83
2021/07/16 10:14:52;;;;;;;2.60;2.33;;;18.40;99.90;;;;;;5090867;28;20247;-83
2021/07/16 10:17:18;;;;;;;3.17;2.27;;;18.30;99.90;;;;;;5085075;28;20532;-83
2021/07/16 10:19:44;;;;;;;2.83;2.63;;;18.30;99.90;;;;;;5085818;28;20170;-85
2021/07/16 10:22:10;;;;;;;2.70;2.50;;;18.30;99.90;;;;;;5088357;28;20213;-84
2021/07/16 10:24:38;;;;;;;2.50;2.00;;;18.20;99.90;;;;;;5047904;28;20171;-83
2021/07/16 10:27:05;;;;;;;1.90;1.80;;;18.20;99.90;;;;;;5100886;28;20222;-83
2021/07/16 10:29:43;;;;;;;3.40;1.90;;;18.20;99.90;;;;;;5104088;28;20257;-83
2021/07/16 10:32:10;;;;;;;2.23;2.03;;;18.20;99.90;;;;;;5105615;28;20198;-82
2021/07/16 10:34:38;;;;;;;2.20;1.93;;;18.20;99.90;;;;;;5103384;28;20183;-82
2021/07/16 10:37:13;;;;;;;3.37;1.93;;;18.20;99.90;;;;;;5103842;28;20180;-82
2021/07/16 10:39:47;;;;;;;2.53;2.13;;;18.20;99.90;;;;;;5103427;28;20210;-82
2021/07/16 10:42:25;;;;;;;2.10;1.80;;;18.20;99.90;;;;;;5103193;28;20203;-83
2021/07/16 10:44:52;;;;;;;2.00;1.80;;;18.20;99.90;;;;;;5101845;28;20172;-82
2021/07/16 10:47:47;;;;;;;2.50;2.30;;;18.20;99.90;;;;;;5101590;28;20174;-83
2021/07/16 10:50:36;;;;;;;1.73;1.63;;;18.20;99.90;;;;;;5101306;28;20183;-83
2021/07/16 10:53:02;;;;;;;2.33;1.83;;;18.10;99.90;;;;;;5101333;28;20181;-82
2021/07/16 10:55:37;;;;;;;2.07;1.87;;;18.20;99.90;;;;;;5102135;28;20194;-82
2021/07/16 10:58:27;;;;;;;4.80;1.93;;;18.20;99.90;;;;;;5105405;28;20158;-82
2021/07/16 11:00:54;;;;;;;3.23;2.10;;;18.30;99.90;;;;;;5109880;28;20256;-82
2021/07/16 11:03:22;;;;;;;2.20;2.00;;;18.30;99.90;;;;;;5115948;28;20183;-82
2021/07/16 11:05:47;;;;;;;2.00;1.87;;;18.30;99.90;;;;;;5106751;28;20191;-81
2021/07/16 11:08:40;;;;;;;3.00;1.73;;;18.30;99.90;;;;;;5093977;28;20187;-83
2021/07/16 11:11:16;;;;;;;3.00;2.70;;;18.50;99.90;;;;;;5088235;28;20266;-83
2021/07/16 11:13:59;;;;;;;1.70;1.60;;;18.70;99.90;;;;;;5095978;28;20180;-83
2021/07/16 11:16:29;;;;;;;1.60;1.50;;;19.30;99.90;;;;;;5099424;28;20433;-83
2021/07/16 11:19:06;;;;;;;1.70;1.53;;;20.30;99.90;;;;;;5100329;28;20240;-83
2021/07/16 11:21:40;;;;;;;2.77;1.87;;;21.30;99.90;;;;;;5104583;28;20207;-84
2021/07/16 11:24:07;;;;;;;1.80;1.70;;;22.00;99.90;;;;;;5100127;28;20271;-82
2021/07/16 11:26:45;;;;;;;1.60;1.50;;;22.30;99.90;;;;;;5102481;28;20177;-82
2021/07/16 11:29:11;;;;;;;1.57;1.47;;;22.50;99.90;;;;;;5105373;28;20188;-82
2021/07/16 11:31:37;;;;;;;3.13;1.80;;;22.80;99.90;;;;;;5114132;28;20261;-82
2021/07/16 11:34:05;;;;;;;2.77;1.70;;;22.80;99.90;;;;;;5105794;28;20638;-83
2021/07/16 11:36:31;;;;;;;4.30;2.10;;;23.10;99.90;;;;;;5103155;28;20267;-82
2021/07/16 11:38:57;;;;;;;1.80;1.70;;;23.40;99.90;;;;;;5103426;28;20194;-83
2021/07/16 11:41:33;;;;;;;2.70;1.90;;;23.60;99.90;;;;;;5102694;28;20278;-82
2021/07/16 11:43:59;;;;;;;1.60;1.50;;;23.90;99.90;;;;;;5103827;28;20505;-82
2021/07/16 11:46:28;;;;;;;1.50;1.40;;;23.90;99.90;;;;;;5103705;28;20640;-83
2021/07/16 11:48:54;;;;;;;3.63;1.83;;;24.30;99.90;;;;;;5103949;28;20229;-83
2021/07/16 11:51:30;;;;;;;2.67;1.40;;;25.10;99.90;;;;;;5101320;28;20231;-83
2021/07/16 11:54:16;;;;;;;2.27;1.70;;;25.50;99.90;;;;;;5101403;28;20207;-83
2021/07/16 11:56:42;;;;;;;1.70;1.60;;;26.30;99.90;;;;;;5099508;28;20180;-82
2021/07/16 11:59:21;;;;;;;1.83;1.20;;;26.40;99.90;;;;;;5100909;28;20225;-82
2021/07/16 12:02:16;;;;;;;3.93;1.40;;;25.60;99.90;;;;;;5101605;28;20713;-83
2021/07/16 12:04:43;;;;;;;1.90;1.40;;;24.00;99.90;;;;;;5100788;28;20171;-82
2021/07/16 12:07:10;;;;;;;2.43;1.60;;;22.70;99.90;;;;;;5101053;28;20177;-82
2021/07/16 12:09:42;;;;;;;1.57;1.40;;;22.00;99.90;;;;;;5101121;28;20647;-82
2021/07/16 12:12:23;;;;;;;1.40;1.30;;;21.60;99.90;;;;;;5100150;28;20205;-82
2021/07/16 12:15:05;;;;;;;1.50;1.40;;;22.00;99.90;;;;;;5100741;28;20284;-82
2021/07/16 12:17:40;;;;;;;6.43;1.77;;;21.70;99.90;;;;;;5101103;28;20243;-83
2021/07/16 12:20:11;;;;;;;3.23;1.40;;;21.30;99.90;;;;;;5102423;28;20184;-82
2021/07/16 12:22:44;;;;;;;5.97;1.80;;;21.00;99.90;;;;;;5101151;28;20201;-82
2021/07/16 12:25:11;;;;;;;2.97;1.80;;;20.70;99.90;;;;;;5105796;28;20170;-82
2021/07/16 12:27:38;;;;;;;1.30;1.20;;;20.50;99.90;;;;;;5109282;28;20195;-83
2021/07/16 12:30:10;;;;;;;1.50;1.40;;;20.30;99.90;;;;;;5101391;28;20175;-82
2021/07/16 12:32:38;;;;;;;1.87;1.63;;;20.30;99.90;;;;;;5100208;28;20196;-82
2021/07/16 12:35:16;;;;;;;1.27;1.17;;;20.20;99.90;;;;;;5101428;28;20181;-83
2021/07/16 12:37:44;;;;;;;1.47;1.37;;;20.40;99.90;;;;;;5100553;28;20172;-82
2021/07/16 12:40:10;;;;;;;2.50;1.50;;;20.40;99.90;;;;;;5100927;28;20201;-82
2021/07/16 12:42:36;;;;;;;1.50;1.40;;;20.50;99.90;;;;;;5101019;28;20168;-82
2021/07/16 12:45:13;;;;;;;1.50;1.40;;;20.60;99.90;;;;;;5100289;28;20204;-82
2021/07/16 12:47:47;;;;;;;3.30;1.50;;;20.40;99.90;;;;;;5104131;28;20210;-82
2021/07/16 12:50:16;;;;;;;1.30;1.20;;;20.30;99.90;;;;;;5100148;28;20174;-83
2021/07/16 12:52:42;;;;;;;1.93;1.20;;;20.20;99.90;;;;;;5100188;28;20199;-83